Main page
METAR-TAF:

METAR-TAF

Airports :

Denison Municipal Airport

Denison, Iowa, United States

latitude: 41-59N, longitude: 095-23W, elevation: 1273 ft

Current weather observation

The report was made 22 minutes ago, at 21:55 UTC
Wind 22 mph from the South with gusts up to 30 mph
Temperature 72°F
Humidity 35%
Pressure 29.79 in. Hg
Visibility: 10 miles
Clear sky

METAR: KDNS 012155Z AUTO 19019G26KT 10SM CLR 22/06 A2979 RMK AO2

Time: 17:17 (22:17 UTC)


TAF: missing

Weather observations and forecasts of more than 4000 airports (METAR and TAF reports).

The available stations are represented by yellow and red dots on the map.

Hover mouse over dot to see the name of the station.

Then click to see weather observations and forecasts.

To change the map : click on the green buttons with a black cross to zoom in, on the green button with a dash to zoom out, or on the green arrows for adjacent maps.


METAR-TAF: